Time;durP1;ratioP1;P1;durP2;ratioP2;P2;SDS_P1;SDS_P2;PMS_P1;PMS_P2;Temp;Humidity;BMP_temperature;BMP_pressure;BME280_temperature;BME280_humidity;BME280_pressure;Samples;Min_cycle;Max_cycle;Signal;HPM_P1;HPM_P2
2023/11/12 00:01:03;;;;;;;6.63;4.28;;;4.40;99.90;;;;;;5049903;28;20038;-64
2023/11/12 00:03:34;;;;;;;4.93;2.63;;;4.40;99.90;;;;;;5041534;28;20443;-65
2023/11/12 00:06:06;;;;;;;4.90;2.35;;;4.40;99.90;;;;;;5021645;28;20269;-66
2023/11/12 00:08:33;;;;;;;4.82;2.70;;;4.40;99.90;;;;;;5039278;28;20059;-64
2023/11/12 00:11:00;;;;;;;7.32;3.35;;;4.40;99.90;;;;;;5036759;28;20056;-65
2023/11/12 00:13:32;;;;;;;3.55;2.40;;;4.40;99.90;;;;;;5035968;28;20047;-64
2023/11/12 00:16:00;;;;;;;10.25;3.90;;;4.30;99.90;;;;;;5035768;28;20509;-65
2023/11/12 00:18:33;;;;;;;7.07;2.72;;;4.30;99.90;;;;;;5041271;28;20037;-64
2023/11/12 00:21:05;;;;;;;4.82;3.08;;;4.30;99.90;;;;;;5037392;28;20044;-64
2023/11/12 00:23:37;;;;;;;4.55;2.55;;;4.30;99.90;;;;;;5046176;28;20045;-64
2023/11/12 00:26:04;;;;;;;5.68;2.60;;;4.30;99.90;;;;;;5028724;28;20061;-64
2023/11/12 00:28:38;;;;;;;8.90;3.20;;;4.30;99.90;;;;;;5037449;28;20448;-66
2023/11/12 00:31:11;;;;;;;4.53;2.70;;;4.40;99.90;;;;;;5045882;28;20042;-64
2023/11/12 00:33:43;;;;;;;3.45;2.08;;;4.40;99.90;;;;;;5050995;28;20045;-64
2023/11/12 00:36:15;;;;;;;4.00;2.55;;;4.40;99.90;;;;;;5024801;28;20041;-64
2023/11/12 00:38:41;;;;;;;6.07;2.60;;;4.40;99.90;;;;;;5038454;28;20041;-64
2023/11/12 00:41:18;;;;;;;5.70;3.20;;;4.40;99.90;;;;;;5024021;28;20045;-64
2023/11/12 00:43:45;;;;;;;5.00;2.22;;;4.40;99.90;;;;;;5044865;28;20132;-64
2023/11/12 00:46:17;;;;;;;5.53;3.20;;;4.40;99.90;;;;;;5045517;28;20050;-64
2023/11/12 00:48:44;;;;;;;6.93;3.22;;;4.40;99.90;;;;;;5037731;28;20034;-64
2023/11/12 00:51:17;;;;;;;5.80;3.70;;;4.30;99.90;;;;;;5037020;28;20046;-64
2023/11/12 00:53:49;;;;;;;5.35;2.92;;;4.30;99.90;;;;;;5043176;28;20073;-64
2023/11/12 00:56:21;;;;;;;4.35;2.88;;;4.40;99.90;;;;;;5043182;28;20053;-64
2023/11/12 00:58:53;;;;;;;6.63;3.65;;;4.40;99.90;;;;;;5037406;28;20048;-64
2023/11/12 01:01:25;;;;;;;5.78;4.22;;;4.40;99.90;;;;;;5022629;28;20528;-64
2023/11/12 01:03:56;;;;;;;6.80;3.00;;;4.40;99.90;;;;;;5042260;28;20520;-64
2023/11/12 01:06:28;;;;;;;4.28;3.38;;;4.40;99.90;;;;;;5040918;28;20497;-64
2023/11/12 01:08:55;;;;;;;4.00;2.78;;;4.40;99.90;;;;;;5039656;28;20048;-64
2023/11/12 01:11:27;;;;;;;5.22;3.38;;;4.50;99.90;;;;;;5056110;28;20440;-64
2023/11/12 01:13:59;;;;;;;5.13;3.10;;;4.50;99.90;;;;;;5041327;28;20045;-64
2023/11/12 01:16:31;;;;;;;7.78;3.10;;;4.50;99.90;;;;;;5044336;28;20055;-64
2023/11/12 01:19:03;;;;;;;5.65;3.22;;;4.60;99.90;;;;;;5048117;28;20063;-64
2023/11/12 01:21:35;;;;;;;4.93;3.17;;;4.60;99.90;;;;;;5037641;28;20465;-64
2023/11/12 01:24:07;;;;;;;8.00;3.45;;;4.60;99.90;;;;;;5039014;28;20592;-64
2023/11/12 01:26:39;;;;;;;4.50;3.13;;;4.60;99.90;;;;;;5047216;28;20057;-64
2023/11/12 01:29:11;;;;;;;5.68;2.92;;;4.60;99.90;;;;;;5044884;28;20075;-64
2023/11/12 01:31:37;;;;;;;4.05;2.58;;;4.60;99.90;;;;;;5038599;28;20037;-64
2023/11/12 01:34:07;;;;;;;3.58;2.70;;;4.70;99.90;;;;;;5041255;28;20628;-64
2023/11/12 01:36:39;;;;;;;5.38;2.90;;;4.70;99.90;;;;;;5040875;28;20487;-64
2023/11/12 01:39:12;;;;;;;5.15;3.05;;;4.70;99.90;;;;;;5039622;28;20133;-64
2023/11/12 01:41:39;;;;;;;4.90;3.10;;;4.70;99.90;;;;;;5039932;28;20556;-64
2023/11/12 01:44:11;;;;;;;6.20;3.13;;;4.70;99.90;;;;;;5040432;28;20505;-64
2023/11/12 01:46:44;;;;;;;5.53;2.72;;;4.70;99.90;;;;;;5039229;28;20073;-64
2023/11/12 01:49:16;;;;;;;4.13;2.78;;;4.70;99.90;;;;;;5036645;28;20065;-64
2023/11/12 01:51:43;;;;;;;5.22;3.22;;;4.70;99.90;;;;;;5040575;28;20041;-64
2023/11/12 01:54:15;;;;;;;4.53;3.00;;;4.80;99.90;;;;;;5046680;28;20080;-64
2023/11/12 01:56:47;;;;;;;4.93;2.57;;;4.80;99.90;;;;;;5037459;28;20509;-64
2023/11/12 01:59:19;;;;;;;3.65;2.53;;;4.80;99.90;;;;;;5050485;28;20038;-64
2023/11/12 02:01:52;;;;;;;4.40;3.17;;;4.80;99.90;;;;;;5040140;28;20048;-64
2023/11/12 02:04:20;;;;;;;4.35;2.80;;;4.80;99.90;;;;;;5043168;28;20119;-64
2023/11/12 02:06:52;;;;;;;4.60;2.80;;;4.80;99.90;;;;;;5038337;28;20049;-64
2023/11/12 02:09:23;;;;;;;4.60;2.78;;;4.70;99.90;;;;;;5021967;28;20140;-64
2023/11/12 02:11:56;;;;;;;4.00;3.08;;;4.70;99.90;;;;;;5036930;28;20056;-64
2023/11/12 02:14:25;;;;;;;4.35;3.03;;;4.70;99.90;;;;;;5036675;28;20128;-64
2023/11/12 02:16:58;;;;;;;6.32;2.88;;;4.70;99.90;;;;;;5040481;28;20053;-64
2023/11/12 02:19:30;;;;;;;5.65;2.97;;;4.70;99.90;;;;;;5039972;28;20049;-64
2023/11/12 02:22:02;;;;;;;25.33;4.90;;;4.70;99.90;;;;;;5035586;28;20132;-64
2023/11/12 02:24:34;;;;;;;4.63;2.67;;;4.70;99.90;;;;;;5033132;28;20052;-64
2023/11/12 02:27:01;;;;;;;4.53;2.38;;;4.70;99.90;;;;;;5045633;28;20037;-65
2023/11/12 02:29:33;;;;;;;4.90;2.92;;;4.70;99.90;;;;;;5053101;28;20131;-64
2023/11/12 02:32:05;;;;;;;4.35;2.92;;;4.70;99.90;;;;;;5029560;28;20052;-64
2023/11/12 02:34:37;;;;;;;4.63;2.78;;;4.70;99.90;;;;;;5034417;28;20434;-64
2023/11/12 02:37:10;;;;;;;5.15;3.45;;;4.70;99.90;;;;;;5053079;28;20132;-64
2023/11/12 02:39:42;;;;;;;4.15;2.90;;;4.70;99.90;;;;;;5039375;28;20128;-64
2023/11/12 02:42:16;;;;;;;4.90;2.90;;;4.70;99.90;;;;;;5040282;28;20502;-64
2023/11/12 02:44:49;;;;;;;5.78;2.60;;;4.70;99.90;;;;;;5038520;28;20076;-64
2023/11/12 02:47:21;;;;;;;5.35;3.63;;;4.70;99.90;;;;;;5045195;28;20061;-64
2023/11/12 02:50:05;;;;;;;5.22;3.10;;;4.70;99.90;;;;;;5023536;28;20055;-64
2023/11/12 02:52:37;;;;;;;4.10;3.03;;;4.70;99.90;;;;;;5037418;28;20055;-64
2023/11/12 02:55:09;;;;;;;6.22;3.00;;;4.70;99.90;;;;;;5045743;28;20124;-64
2023/11/12 02:57:40;;;;;;;4.03;2.67;;;4.70;99.90;;;;;;5035285;28;20081;-64
2023/11/12 03:00:14;;;;;;;4.80;3.10;;;4.60;99.90;;;;;;5033613;28;20041;-65
2023/11/12 03:02:46;;;;;;;4.70;2.67;;;4.60;99.90;;;;;;5038890;28;20043;-64
2023/11/12 03:05:14;;;;;;;4.93;3.35;;;4.60;99.90;;;;;;5042015;28;20073;-64
2023/11/12 03:07:41;;;;;;;4.30;3.15;;;4.50;99.90;;;;;;5037441;28;20087;-64
2023/11/12 03:10:11;;;;;;;4.05;3.30;;;4.50;99.90;;;;;;5035698;28;20037;-64
2023/11/12 03:12:44;;;;;;;3.47;2.88;;;4.40;99.90;;;;;;5039126;28;20045;-64
2023/11/12 03:15:11;;;;;;;4.95;3.05;;;4.40;99.90;;;;;;5041956;28;20037;-64
2023/11/12 03:17:43;;;;;;;4.32;3.45;;;4.40;99.90;;;;;;5046759;28;20508;-64
2023/11/12 03:20:15;;;;;;;5.00;2.47;;;4.40;99.90;;;;;;5040889;28;20068;-64
2023/11/12 03:22:43;;;;;;;5.10;2.80;;;4.30;99.90;;;;;;5033107;28;20126;-64
2023/11/12 03:25:15;;;;;;;5.93;3.10;;;4.30;99.90;;;;;;5030085;28;20036;-64
2023/11/12 03:27:46;;;;;;;4.43;2.70;;;4.30;99.90;;;;;;5041529;28;20052;-64
2023/11/12 03:30:14;;;;;;;6.13;2.35;;;4.20;99.90;;;;;;5041957;28;20067;-64
2023/11/12 03:32:46;;;;;;;3.50;2.55;;;4.10;99.90;;;;;;5035105;28;20073;-64
2023/11/12 03:35:17;;;;;;;4.85;3.00;;;4.00;99.90;;;;;;5042591;28;20069;-64
2023/11/12 03:37:44;;;;;;;2.88;2.25;;;3.90;99.90;;;;;;5038962;28;20037;-64
2023/11/12 03:40:16;;;;;;;2.80;2.25;;;3.90;99.90;;;;;;5046454;28;20051;-64
2023/11/12 03:42:43;;;;;;;5.32;2.50;;;3.70;99.90;;;;;;5038956;28;20038;-64
2023/11/12 03:45:15;;;;;;;3.63;2.30;;;3.70;99.90;;;;;;5035736;28;20033;-64
2023/11/12 03:47:47;;;;;;;6.07;2.30;;;3.60;99.90;;;;;;5047724;28;20068;-64
2023/11/12 03:50:19;;;;;;;5.32;2.63;;;3.50;99.90;;;;;;5042121;28;20059;-64
2023/11/12 03:52:51;;;;;;;7.05;2.70;;;3.50;99.90;;;;;;5036880;28;20139;-64
2023/11/12 03:55:23;;;;;;;5.68;2.88;;;3.40;99.90;;;;;;5044401;28;20065;-64
2023/11/12 03:57:55;;;;;;;4.20;2.55;;;3.30;99.90;;;;;;5031369;28;20053;-64
2023/11/12 04:00:28;;;;;;;3.78;2.85;;;3.20;99.90;;;;;;5037378;28;20037;-64
2023/11/12 04:03:00;;;;;;;3.17;2.40;;;3.20;99.90;;;;;;5038562;28;20045;-65
2023/11/12 04:05:31;;;;;;;6.75;2.65;;;3.20;99.90;;;;;;5036045;28;20092;-64
2023/11/12 04:07:59;;;;;;;5.78;2.78;;;3.20;99.90;;;;;;5036576;28;20037;-64
2023/11/12 04:10:31;;;;;;;5.18;2.88;;;3.10;99.90;;;;;;5037246;28;20517;-64
2023/11/12 04:12:59;;;;;;;3.92;2.88;;;3.10;99.90;;;;;;5036052;28;20045;-64
2023/11/12 04:15:32;;;;;;;3.42;2.55;;;3.00;99.90;;;;;;5020659;28;20093;-64
2023/11/12 04:18:04;;;;;;;4.55;2.53;;;2.90;99.90;;;;;;5037625;28;20060;-64
2023/11/12 04:20:32;;;;;;;4.18;3.10;;;2.90;99.90;;;;;;5033536;28;20061;-64
2023/11/12 04:23:04;;;;;;;4.47;2.83;;;2.90;99.90;;;;;;5034466;28;20076;-64
2023/11/12 04:25:36;;;;;;;3.53;2.90;;;2.80;99.90;;;;;;5039303;28;20124;-64
2023/11/12 04:28:08;;;;;;;4.95;2.90;;;2.70;99.90;;;;;;5038224;28;20049;-64
2023/11/12 04:30:40;;;;;;;5.38;3.85;;;2.70;99.90;;;;;;5034923;28;20084;-64
2023/11/12 04:33:12;;;;;;;7.50;3.85;;;2.70;99.90;;;;;;5031004;28;20049;-64
2023/11/12 04:35:44;;;;;;;6.13;4.18;;;2.80;99.90;;;;;;5038009;28;20049;-64
2023/11/12 04:38:11;;;;;;;9.35;3.63;;;2.80;99.90;;;;;;5037588;28;20037;-64
2023/11/12 04:40:49;;;;;;;3.55;3.10;;;2.80;99.90;;;;;;5034543;28;20061;-64
2023/11/12 04:43:21;;;;;;;5.82;3.85;;;2.70;99.90;;;;;;5038970;28;20513;-64
2023/11/12 04:45:47;;;;;;;4.72;3.15;;;2.60;99.90;;;;;;5040450;28;20045;-65
2023/11/12 04:48:19;;;;;;;4.18;2.92;;;2.60;99.90;;;;;;5036691;28;20589;-64
2023/11/12 04:50:51;;;;;;;3.72;2.65;;;2.60;99.90;;;;;;5036829;28;20390;-64
2023/11/12 04:53:23;;;;;;;4.63;3.65;;;2.60;99.90;;;;;;5043594;28;20064;-64
2023/11/12 04:55:55;;;;;;;3.88;2.97;;;2.70;99.90;;;;;;5035542;28;20125;-64
2023/11/12 04:58:22;;;;;;;4.45;3.05;;;2.60;99.90;;;;;;5038096;28;20150;-64
2023/11/12 05:00:52;;;;;;;4.00;3.00;;;2.60;99.90;;;;;;5036364;28;20045;-64
2023/11/12 05:03:20;;;;;;;4.80;3.28;;;2.60;99.90;;;;;;5039371;28;20040;-64
2023/11/12 05:05:47;;;;;;;4.53;3.40;;;2.60;99.90;;;;;;5033672;28;20052;-64
2023/11/12 05:08:19;;;;;;;6.20;3.97;;;2.70;99.90;;;;;;5039881;28;20042;-64
2023/11/12 05:10:46;;;;;;;4.82;3.60;;;2.70;99.90;;;;;;5044506;28;20041;-64
2023/11/12 05:13:19;;;;;;;6.05;3.53;;;2.70;99.90;;;;;;5036442;28;20045;-64
2023/11/12 05:15:46;;;;;;;5.28;3.83;;;2.70;99.90;;;;;;5037709;28;20052;-64
2023/11/12 05:18:18;;;;;;;5.72;3.80;;;2.70;99.90;;;;;;5040533;28;20072;-65
2023/11/12 05:20:50;;;;;;;6.60;3.45;;;2.70;99.90;;;;;;5039390;28;20057;-64
2023/11/12 05:23:22;;;;;;;6.10;3.58;;;2.70;99.90;;;;;;5045178;28;20033;-64
2023/11/12 05:25:58;;;;;;;5.32;3.20;;;2.80;99.90;;;;;;5038876;28;20033;-64
2023/11/12 05:28:30;;;;;;;5.93;3.45;;;2.70;99.90;;;;;;5038852;28;20057;-64
2023/11/12 05:31:01;;;;;;;4.80;3.03;;;2.70;99.90;;;;;;5034861;28;20041;-64
2023/11/12 05:33:33;;;;;;;4.25;3.40;;;2.70;99.90;;;;;;5044435;28;20215;-64
2023/11/12 05:36:06;;;;;;;5.15;3.08;;;2.60;99.90;;;;;;5041247;28;20045;-64
2023/11/12 05:38:38;;;;;;;4.70;3.40;;;2.60;99.90;;;;;;5044997;28;20041;-64
2023/11/12 05:41:10;;;;;;;5.78;3.45;;;2.60;99.90;;;;;;5039129;28;20524;-64
2023/11/12 05:43:37;;;;;;;3.90;2.95;;;2.60;99.90;;;;;;5041032;28;20030;-64
2023/11/12 05:46:09;;;;;;;4.68;3.20;;;2.60;99.90;;;;;;5040728;28;20048;-64
2023/11/12 05:48:41;;;;;;;6.88;3.50;;;2.60;99.90;;;;;;5040644;28;20040;-64
2023/11/12 05:51:13;;;;;;;5.40;3.33;;;2.50;99.90;;;;;;5039952;28;20057;-65
2023/11/12 05:53:44;;;;;;;5.13;3.13;;;2.50;99.90;;;;;;5040301;28;20038;-64
2023/11/12 05:56:16;;;;;;;3.83;3.05;;;2.40;99.90;;;;;;5038625;28;20045;-64
2023/11/12 05:58:48;;;;;;;4.28;3.30;;;2.30;99.90;;;;;;5044027;28;20034;-64
2023/11/12 06:01:20;;;;;;;4.50;3.55;;;2.30;99.90;;;;;;5039139;28;20561;-64
2023/11/12 06:03:52;;;;;;;4.53;3.38;;;2.30;99.90;;;;;;5035774;28;20037;-64
2023/11/12 06:06:25;;;;;;;8.70;4.32;;;2.30;99.90;;;;;;5041168;28;20092;-64
2023/11/12 06:08:51;;;;;;;13.40;7.25;;;2.30;99.90;;;;;;5043436;28;20041;-65
2023/11/12 06:11:23;;;;;;;14.35;8.85;;;2.40;99.90;;;;;;5040885;28;20037;-64
2023/11/12 06:13:55;;;;;;;20.23;11.80;;;2.40;99.90;;;;;;5037741;28;20041;-64
2023/11/12 06:16:27;;;;;;;15.13;9.02;;;2.30;99.90;;;;;;5041435;28;20049;-64
2023/11/12 06:18:53;;;;;;;12.60;6.93;;;2.30;99.90;;;;;;5039449;28;20535;-64
2023/11/12 06:21:20;;;;;;;13.52;6.78;;;2.40;99.90;;;;;;5038750;28;20043;-65
2023/11/12 06:23:53;;;;;;;8.32;5.18;;;2.40;99.90;;;;;;5039399;28;20030;-65
2023/11/12 06:26:22;;;;;;;6.65;5.05;;;2.40;99.90;;;;;;5039095;28;20051;-64
2023/11/12 06:28:49;;;;;;;55.95;24.25;;;2.40;99.90;;;;;;5036412;28;20531;-64
2023/11/12 06:31:22;;;;;;;55.45;26.50;;;2.40;99.90;;;;;;5040420;28;20059;-65
2023/11/12 06:33:53;;;;;;;38.63;18.90;;;2.40;99.90;;;;;;5039246;28;20041;-64
2023/11/12 06:36:25;;;;;;;25.77;12.57;;;2.40;99.90;;;;;;5038366;28;20036;-64
2023/11/12 06:38:57;;;;;;;15.30;8.75;;;2.30;99.90;;;;;;5033911;28;20552;-64
2023/11/12 06:41:29;;;;;;;14.10;7.60;;;2.30;99.90;;;;;;5038523;28;20061;-64
2023/11/12 06:44:01;;;;;;;15.98;7.88;;;2.30;99.90;;;;;;5039335;28;20038;-65
2023/11/12 06:46:32;;;;;;;6.85;4.60;;;2.30;99.90;;;;;;5038314;28;20037;-64
2023/11/12 06:49:04;;;;;;;7.95;4.32;;;2.30;99.90;;;;;;5038452;28;20040;-64
2023/11/12 06:51:36;;;;;;;6.03;4.25;;;2.30;99.90;;;;;;5038638;28;20034;-64
2023/11/12 06:54:08;;;;;;;6.15;4.18;;;2.30;99.90;;;;;;5037841;28;20462;-65
2023/11/12 06:56:40;;;;;;;8.23;5.95;;;2.30;99.90;;;;;;5041029;28;20047;-64
2023/11/12 06:59:12;;;;;;;17.92;9.00;;;2.30;99.90;;;;;;5042301;28;20037;-64
2023/11/12 07:01:45;;;;;;;30.08;19.77;;;2.30;99.90;;;;;;5040371;28;20030;-64
2023/11/12 07:04:17;;;;;;;32.53;21.83;;;2.30;99.90;;;;;;5037364;28;20041;-64
2023/11/12 07:06:44;;;;;;;24.83;17.15;;;2.30;99.90;;;;;;5043653;28;20041;-64
2023/11/12 07:09:17;;;;;;;21.20;14.88;;;2.30;99.90;;;;;;5038590;28;20449;-65
2023/11/12 07:11:48;;;;;;;24.13;14.60;;;2.30;99.90;;;;;;5035439;28;20042;-64
2023/11/12 07:14:15;;;;;;;26.02;15.13;;;2.30;99.90;;;;;;5032959;28;20045;-65
2023/11/12 07:16:43;;;;;;;14.90;10.90;;;2.30;99.90;;;;;;5034490;28;20041;-65
2023/11/12 07:19:15;;;;;;;16.27;10.02;;;2.40;99.90;;;;;;5038357;28;20037;-65
2023/11/12 07:21:47;;;;;;;15.13;9.35;;;2.40;99.90;;;;;;5035869;28;20128;-64
2023/11/12 07:24:14;;;;;;;12.80;8.95;;;2.40;99.90;;;;;;5037894;28;20041;-64
2023/11/12 07:26:46;;;;;;;10.25;7.85;;;2.30;99.90;;;;;;5037564;28;20044;-64
2023/11/12 07:29:18;;;;;;;12.13;8.93;;;2.30;99.90;;;;;;5038049;28;20044;-64
2023/11/12 07:31:50;;;;;;;14.25;7.72;;;2.40;99.90;;;;;;5023590;28;20092;-70
2023/11/12 07:34:22;;;;;;;10.43;7.22;;;2.40;99.90;;;;;;5038407;28;20045;-64
2023/11/12 07:36:53;;;;;;;10.57;7.78;;;2.50;99.90;;;;;;5035510;28;20042;-64
2023/11/12 07:39:20;;;;;;;12.15;8.65;;;2.50;99.90;;;;;;5031120;28;20041;-64
2023/11/12 07:41:52;;;;;;;11.23;7.00;;;2.50;99.90;;;;;;5037636;28;20030;-65
2023/11/12 07:44:24;;;;;;;10.57;7.40;;;2.50;99.90;;;;;;5038489;28;20045;-64
2023/11/12 07:46:56;;;;;;;11.63;6.68;;;2.60;99.90;;;;;;5041061;28;20041;-65
2023/11/12 07:49:28;;;;;;;11.32;7.32;;;2.60;99.90;;;;;;5041694;28;20505;-65
2023/11/12 07:51:55;;;;;;;9.52;6.35;;;2.60;99.90;;;;;;5036007;28;20478;-64
2023/11/12 07:54:27;;;;;;;24.02;14.70;;;2.60;99.90;;;;;;5036524;28;20048;-65
2023/11/12 07:56:59;;;;;;;19.27;11.13;;;2.60;99.90;;;;;;5031236;28;20048;-65
2023/11/12 07:59:26;;;;;;;10.10;7.32;;;2.60;99.90;;;;;;5036885;28;20111;-64
2023/11/12 08:01:58;;;;;;;10.18;7.93;;;2.60;99.90;;;;;;5040971;28;20041;-64
2023/11/12 08:04:25;;;;;;;14.18;9.50;;;2.60;99.90;;;;;;5043863;28;20049;-64
2023/11/12 08:06:52;;;;;;;13.38;8.25;;;2.60;99.90;;;;;;5038594;28;20033;-64
2023/11/12 08:09:24;;;;;;;14.38;8.45;;;2.60;99.90;;;;;;5037023;28;20573;-65
2023/11/12 08:11:56;;;;;;;11.52;6.57;;;2.60;99.90;;;;;;5034526;28;20075;-64
2023/11/12 08:14:28;;;;;;;9.75;6.75;;;2.70;99.90;;;;;;5035743;28;20194;-64
2023/11/12 08:17:00;;;;;;;9.95;6.13;;;2.60;99.90;;;;;;5038053;28;20044;-64
2023/11/12 08:19:31;;;;;;;11.48;7.78;;;2.60;99.90;;;;;;5037462;28;20040;-65
2023/11/12 08:22:03;;;;;;;9.10;6.93;;;2.60;99.90;;;;;;5037112;28;20044;-65
2023/11/12 08:24:35;;;;;;;10.43;6.40;;;2.70;99.90;;;;;;5037756;28;20037;-68
2023/11/12 08:27:07;;;;;;;9.85;6.35;;;2.80;99.90;;;;;;5034891;28;20060;-66
2023/11/12 08:29:35;;;;;;;9.75;6.18;;;2.90;99.90;;;;;;5037743;28;20611;-65
2023/11/12 08:32:02;;;;;;;6.30;5.22;;;2.90;99.90;;;;;;5036626;28;20045;-64
2023/11/12 08:34:33;;;;;;;13.13;7.30;;;2.90;99.90;;;;;;5038216;28;20039;-64
2023/11/12 08:37:00;;;;;;;14.80;8.23;;;2.90;99.90;;;;;;5041955;28;20083;-65
2023/11/12 08:39:32;;;;;;;14.38;8.00;;;2.90;99.90;;;;;;5036987;28;20052;-64
2023/11/12 08:42:05;;;;;;;11.20;6.90;;;2.90;99.90;;;;;;5037969;28;20682;-65
2023/11/12 08:44:37;;;;;;;9.45;6.43;;;2.90;99.90;;;;;;5036061;28;20057;-65
2023/11/12 08:47:08;;;;;;;13.43;7.80;;;2.80;99.90;;;;;;5040779;28;20044;-64
2023/11/12 08:49:35;;;;;;;37.95;19.65;;;2.90;99.90;;;;;;5039837;28;20034;-65
2023/11/12 08:52:02;;;;;;;23.63;14.65;;;3.00;99.90;;;;;;5037117;28;21234;-64
2023/11/12 08:54:29;;;;;;;26.35;16.33;;;3.00;99.90;;;;;;5040516;28;20124;-64
2023/11/12 08:57:01;;;;;;;20.35;12.55;;;3.00;99.90;;;;;;5040171;28;20555;-65
2023/11/12 08:59:33;;;;;;;12.15;8.70;;;3.10;99.90;;;;;;5039514;28;20037;-64
2023/11/12 09:02:06;;;;;;;13.63;7.65;;;3.20;99.90;;;;;;5037447;28;20108;-64
2023/11/12 09:04:34;;;;;;;10.30;7.35;;;3.20;99.90;;;;;;5041185;28;20481;-64
2023/11/12 09:07:07;;;;;;;12.48;7.82;;;3.30;99.90;;;;;;5041189;28;20048;-64
2023/11/12 09:09:38;;;;;;;7.90;6.13;;;3.40;99.90;;;;;;5039518;28;20042;-64
2023/11/12 09:12:05;;;;;;;7.10;5.57;;;3.40;99.90;;;;;;5035025;28;20117;-65
2023/11/12 09:14:37;;;;;;;36.50;17.77;;;3.50;99.90;;;;;;5042300;28;20041;-64
2023/11/12 09:17:09;;;;;;;97.53;44.83;;;3.50;99.90;;;;;;5041397;28;20032;-65
2023/11/12 09:19:45;;;;;;;97.65;49.95;;;3.50;99.90;;;;;;5041728;28;20033;-65
2023/11/12 09:22:17;;;;;;;73.10;37.85;;;3.50;99.90;;;;;;5044178;28;20045;-64
2023/11/12 09:24:49;;;;;;;87.07;39.13;;;3.50;99.90;;;;;;5039913;28;20524;-64
2023/11/12 09:27:21;;;;;;;78.28;35.83;;;3.60;99.90;;;;;;5039714;28;20448;-64
2023/11/12 09:29:53;;;;;;;42.47;23.23;;;3.70;99.90;;;;;;5040836;28;20060;-64
2023/11/12 09:32:25;;;;;;;19.70;13.07;;;3.70;99.90;;;;;;5042573;28;20041;-65
2023/11/12 09:34:52;;;;;;;15.70;11.02;;;3.70;99.90;;;;;;5037429;28;20055;-65
2023/11/12 09:37:24;;;;;;;14.15;10.90;;;3.70;99.90;;;;;;5038356;28;20035;-65
2023/11/12 09:39:50;;;;;;;16.38;11.50;;;3.70;99.90;;;;;;5049259;28;20033;-65
2023/11/12 09:42:27;;;;;;;11.77;10.15;;;3.70;99.90;;;;;;5045942;28;20088;-64
2023/11/12 09:44:59;;;;;;;9.43;8.20;;;3.70;99.90;;;;;;5039879;28;20494;-64
2023/11/12 09:47:53;;;;;;;9.27;6.63;;;3.70;99.90;;;;;;5039044;28;20055;-64
2023/11/12 09:50:25;;;;;;;13.65;8.27;;;3.70;99.90;;;;;;5036815;28;20731;-65
2023/11/12 09:53:03;;;;;;;12.75;7.88;;;3.70;99.90;;;;;;5038739;28;20048;-65
2023/11/12 09:55:35;;;;;;;14.52;9.63;;;3.80;99.90;;;;;;5038339;28;20509;-65
2023/11/12 09:58:07;;;;;;;13.23;11.43;;;3.90;99.90;;;;;;5036829;28;20048;-65
2023/11/12 10:00:35;;;;;;;14.20;11.95;;;4.00;99.90;;;;;;5035906;28;20128;-64
2023/11/12 10:03:10;;;;;;;21.48;13.27;;;4.00;99.90;;;;;;5037817;28;20413;-65
2023/11/12 10:05:42;;;;;;;14.00;11.93;;;4.10;99.90;;;;;;5039824;28;20087;-65
2023/11/12 10:08:15;;;;;;;15.38;11.85;;;4.10;99.90;;;;;;5039770;28;20132;-64
2023/11/12 10:10:47;;;;;;;14.75;10.02;;;4.20;99.90;;;;;;5046301;28;20042;-64
2023/11/12 10:13:34;;;;;;;17.52;11.23;;;4.20;99.90;;;;;;5036835;28;20048;-64
2023/11/12 10:16:25;;;;;;;17.23;11.10;;;4.30;99.90;;;;;;5036242;28;20111;-65
2023/11/12 10:18:53;;;;;;;16.95;10.98;;;4.30;99.90;;;;;;5035637;28;20051;-64
2023/11/12 10:21:25;;;;;;;14.13;10.32;;;4.40;99.90;;;;;;5037094;28;20029;-65
2023/11/12 10:24:07;;;;;;;23.02;18.17;;;4.40;99.90;;;;;;5037696;28;20045;-65
2023/11/12 10:26:38;;;;;;;24.17;19.38;;;4.50;99.90;;;;;;5044249;28;20057;-65
2023/11/12 10:29:21;;;;;;;17.00;13.65;;;4.60;99.90;;;;;;5039493;28;20030;-64
2023/11/12 10:31:48;;;;;;;12.18;10.05;;;4.60;99.90;;;;;;5045273;28;20394;-65
2023/11/12 10:34:22;;;;;;;12.77;9.23;;;4.70;99.90;;;;;;5035915;28;20041;-65
2023/11/12 10:37:07;;;;;;;12.43;7.68;;;4.80;99.90;;;;;;5052478;28;20820;-64
2023/11/12 10:39:44;;;;;;;9.32;6.72;;;4.80;99.90;;;;;;5043173;28;20043;-65
2023/11/12 10:42:24;;;;;;;10.57;8.02;;;4.80;99.90;;;;;;5041374;28;20040;-64
2023/11/12 10:44:57;;;;;;;11.35;7.55;;;4.90;99.90;;;;;;5040088;28;20034;-65
2023/11/12 10:47:29;;;;;;;;;;;4.90;99.90;;;;;;5043913;28;20382;-65
2023/11/12 10:50:04;;;;;;;8.50;6.13;;;5.00;99.90;;;;;;5041817;28;19936;-65
2023/11/12 10:52:37;;;;;;;7.78;6.68;;;5.00;99.90;;;;;;5036773;28;20056;-64
2023/11/12 10:55:10;;;;;;;8.43;6.40;;;5.00;99.90;;;;;;5038092;28;20043;-65
2023/11/12 10:57:44;;;;;;;8.65;5.80;;;5.00;99.90;;;;;;5038481;28;20057;-64
2023/11/12 11:00:11;;;;;;;9.30;5.90;;;5.00;99.90;;;;;;5037890;28;20510;-65
2023/11/12 11:02:46;;;;;;;9.77;6.47;;;5.00;99.90;;;;;;5036841;28;20037;-65
2023/11/12 11:05:19;;;;;;;9.68;7.68;;;5.10;99.90;;;;;;5034284;28;20434;-64
2023/11/12 11:07:51;;;;;;;7.20;6.35;;;5.10;99.90;;;;;;5035930;28;20061;-65
2023/11/12 11:10:23;;;;;;;9.85;6.13;;;5.20;99.90;;;;;;5041051;28;20033;-65
2023/11/12 11:12:55;;;;;;;7.72;5.88;;;5.20;99.90;;;;;;5043048;28;20037;-64
2023/11/12 11:15:42;;;;;;;13.05;8.18;;;5.20;99.90;;;;;;5040782;28;20514;-64
2023/11/12 11:18:30;;;;;;;12.10;8.20;;;5.20;99.90;;;;;;5039888;28;20415;-65
2023/11/12 11:21:06;;;;;;;9.82;6.32;;;5.30;99.90;;;;;;5040696;28;20061;-65
2023/11/12 11:23:54;;;;;;;6.38;4.78;;;5.40;99.90;;;;;;5036686;28;20033;-65
2023/11/12 11:26:34;;;;;;;7.13;4.80;;;5.50;99.90;;;;;;5053200;28;20036;-64
2023/11/12 11:29:10;;;;;;;8.63;6.93;;;5.60;99.90;;;;;;5037953;28;20033;-65
2023/11/12 11:31:54;;;;;;;9.90;7.50;;;5.70;99.90;;;;;;5039034;28;20071;-65
2023/11/12 11:34:42;;;;;;;9.25;6.72;;;5.80;99.90;;;;;;5041297;28;20032;-64
2023/11/12 11:37:09;;;;;;;8.20;6.93;;;5.80;99.90;;;;;;5036934;28;20132;-65
2023/11/12 11:39:41;;;;;;;7.32;5.53;;;5.90;99.90;;;;;;5039150;28;20120;-65
2023/11/12 11:42:14;;;;;;;7.18;5.50;;;5.90;99.90;;;;;;5043717;28;20049;-64
2023/11/12 11:44:48;;;;;;;7.65;6.13;;;6.00;99.90;;;;;;5037627;28;20033;-65
2023/11/12 11:47:23;;;;;;;10.05;6.75;;;6.00;99.90;;;;;;5037892;28;20528;-65
2023/11/12 11:50:31;;;;;;;9.23;7.18;;;6.00;99.90;;;;;;5034918;28;20041;-66
2023/11/12 11:53:03;;;;;;;10.73;6.30;;;6.10;99.90;;;;;;5036888;28;20053;-65
2023/11/12 11:55:36;;;;;;;22.08;13.90;;;6.10;99.90;;;;;;5041163;28;20045;-65
2023/11/12 11:58:08;;;;;;;14.85;10.38;;;6.20;99.90;;;;;;5035074;28;20053;-65
2023/11/12 12:00:59;;;;;;;8.88;5.50;;;6.20;99.90;;;;;;5037784;28;20402;-65
2023/11/12 12:03:30;;;;;;;18.90;12.57;;;6.30;99.90;;;;;;5041853;28;20402;-65
2023/11/12 12:06:21;;;;;;;9.50;6.55;;;6.30;99.90;;;;;;5039785;28;20041;-65
2023/11/12 12:08:55;;;;;;;25.90;16.20;;;6.30;99.90;;;;;;5039557;28;20087;-64
2023/11/12 12:11:27;;;;;;;9.77;7.72;;;6.40;99.90;;;;;;5038143;28;20055;-64
2023/11/12 12:14:06;;;;;;;10.90;7.35;;;6.30;99.90;;;;;;5046236;28;20064;-65
2023/11/12 12:16:42;;;;;;;7.03;5.20;;;6.30;99.90;;;;;;5041367;28;20539;-65
2023/11/12 12:19:19;;;;;;;7.45;4.95;;;6.40;99.90;;;;;;5040016;28;20067;-64
2023/11/12 12:21:51;;;;;;;8.07;5.65;;;6.40;99.90;;;;;;5039953;28;20048;-64
2023/11/12 12:24:21;;;;;;;7.18;4.57;;;6.40;99.90;;;;;;5039331;28;20049;-65
2023/11/12 12:26:53;;;;;;;5.47;3.90;;;6.40;99.90;;;;;;5037446;28;20038;-64
2023/11/12 12:29:25;;;;;;;11.73;8.57;;;6.40;99.90;;;;;;5041494;28;20052;-64
2023/11/12 12:32:10;;;;;;;6.30;5.10;;;6.40;99.90;;;;;;5032746;28;20041;-65
2023/11/12 12:34:43;;;;;;;11.32;8.77;;;6.40;99.90;;;;;;5048332;28;20125;-64
2023/11/12 12:37:24;;;;;;;7.88;6.10;;;6.50;99.90;;;;;;5036360;28;20141;-65
2023/11/12 12:40:10;;;;;;;6.20;5.00;;;6.50;99.90;;;;;;5035139;28;20420;-65
2023/11/12 12:42:43;;;;;;;6.93;4.43;;;6.50;99.90;;;;;;5044550;28;20052;-65
2023/11/12 12:45:15;;;;;;;6.38;4.43;;;6.60;99.90;;;;;;5034572;28;20041;-64
2023/11/12 12:47:42;;;;;;;7.13;4.65;;;6.60;99.90;;;;;;5039968;28;20139;-65
2023/11/12 12:50:16;;;;;;;6.30;4.97;;;6.60;99.90;;;;;;5042050;28;20064;-65
2023/11/12 12:52:51;;;;;;;7.28;4.28;;;6.70;99.90;;;;;;5036691;28;20060;-65
2023/11/12 12:55:23;;;;;;;9.18;6.47;;;6.70;99.90;;;;;;5039643;28;20052;-65
2023/11/12 12:57:58;;;;;;;7.57;4.90;;;6.70;99.90;;;;;;5040933;28;20041;-65
2023/11/12 13:00:25;;;;;;;6.97;5.10;;;6.70;99.90;;;;;;5037046;28;20068;-65
2023/11/12 13:02:58;;;;;;;5.28;3.63;;;6.60;99.90;;;;;;5037962;28;20048;-65
2023/11/12 13:05:31;;;;;;;5.20;2.57;;;6.70;99.90;;;;;;5036864;28;20044;-65
2023/11/12 13:08:07;;;;;;;4.82;2.63;;;6.60;99.90;;;;;;5032771;28;20440;-65
2023/11/12 13:10:34;;;;;;;4.35;2.80;;;6.60;99.90;;;;;;5035658;28;20144;-65
2023/11/12 13:13:06;;;;;;;2.58;2.20;;;6.60;99.90;;;;;;5039555;28;20045;-64
2023/11/12 13:15:33;;;;;;;2.83;1.45;;;6.60;99.90;;;;;;5034090;28;20050;-64
2023/11/12 13:18:00;;;;;;;2.63;1.50;;;6.60;99.90;;;;;;5031683;28;20517;-65